createdAt,value
2018-04-14T00:00:12.911Z,12.7
2018-04-14T00:01:13.162Z,12.69
2018-04-14T00:02:13.141Z,12.7
2018-04-14T00:03:13.125Z,12.66
2018-04-14T00:04:13.113Z,12.64
2018-04-14T00:05:13.100Z,12.71
2018-04-14T00:06:13.079Z,12.62
2018-04-14T00:07:13.069Z,12.64
2018-04-14T00:08:13.054Z,12.74
2018-04-14T00:09:13.052Z,12.63
2018-04-14T00:10:13.030Z,12.74
2018-04-14T00:11:13.034Z,12.71
2018-04-14T00:12:12.729Z,12.67
2018-04-14T00:13:13.255Z,12.71
2018-04-14T00:14:12.967Z,12.69
2018-04-14T00:15:13.152Z,12.67
2018-04-14T00:16:12.678Z,12.67
2018-04-14T00:17:13.186Z,12.69
2018-04-14T00:18:12.906Z,12.67
2018-04-14T00:19:12.901Z,12.67
2018-04-14T00:20:12.614Z,12.74
2018-04-14T00:21:13.128Z,12.7
2018-04-14T00:22:12.860Z,12.67
2018-04-14T00:23:13.105Z,12.66
2018-04-14T00:24:12.823Z,12.64
2018-04-14T00:25:12.805Z,12.69
2018-04-14T00:26:12.791Z,12.74
2018-04-14T00:27:12.779Z,12.69
2018-04-14T00:28:12.498Z,12.74
2018-04-14T00:29:12.957Z,12.64
2018-04-14T00:30:12.732Z,12.67
2018-04-14T00:31:12.988Z,12.7
2018-04-14T00:32:12.716Z,12.67
2018-04-14T00:33:12.962Z,12.62
2018-04-14T00:34:12.939Z,12.71
2018-04-14T00:35:12.659Z,12.69
2018-04-14T00:36:12.914Z,12.67
2018-04-14T00:37:12.897Z,12.63
2018-04-14T00:38:12.618Z,12.66
2018-04-14T00:39:12.864Z,12.54
2018-04-14T00:40:12.588Z,12.52
2018-04-14T00:41:12.575Z,12.56
2018-04-14T00:42:12.292Z,12.6
2018-04-14T00:43:12.811Z,12.6
2018-04-14T00:44:12.526Z,12.52
2018-04-14T00:45:12.785Z,12.59
2018-04-14T00:46:12.235Z,12.56
2018-04-14T00:47:12.753Z,12.52
2018-04-14T00:48:12.736Z,12.52
2018-04-14T00:49:12.454Z,12.51
2018-04-14T00:50:12.437Z,12.59
2018-04-14T00:51:12.685Z,12.62
2018-04-14T00:52:12.420Z,12.63
2018-04-14T00:53:12.401Z,12.64
2018-04-14T00:54:12.377Z,12.59
2018-04-14T00:55:12.379Z,12.57
2018-04-14T00:56:12.347Z,12.59
2018-04-14T00:57:12.338Z,12.52
2018-04-14T00:58:12.317Z,12.57
2018-04-14T00:59:12.300Z,12.64
2018-04-14T01:00:12.024Z,12.64
2018-04-14T01:01:12.058Z,12.56
2018-04-14T01:02:12.266Z,12.51
2018-04-14T01:03:12.242Z,12.57
2018-04-14T01:04:12.232Z,12.59
2018-04-14T01:05:12.221Z,12.52
2018-04-14T01:06:12.200Z,12.49
2018-04-14T01:07:11.919Z,12.46
2018-04-14T01:08:12.178Z,12.48
2018-04-14T01:09:11.890Z,12.52
2018-04-14T01:10:12.408Z,12.41
2018-04-14T01:11:12.129Z,12.48
2018-04-14T01:12:11.844Z,12.49
2018-04-14T01:13:12.091Z,12.49
2018-04-14T01:14:12.347Z,12.42
2018-04-14T01:15:12.331Z,12.49
2018-04-14T01:16:12.054Z,12.46
2018-04-14T01:17:12.315Z,12.49
2018-04-14T01:18:12.283Z,12.49
2018-04-14T01:19:11.999Z,12.51
2018-04-14T01:20:11.991Z,12.46
2018-04-14T01:21:11.977Z,12.44
2018-04-14T01:22:11.697Z,12.54
2018-04-14T01:23:11.678Z,12.46
2018-04-14T01:24:11.672Z,12.52
2018-04-14T01:25:11.655Z,12.57
2018-04-14T01:26:11.635Z,12.54
2018-04-14T01:27:12.151Z,12.52
2018-04-14T01:28:12.156Z,12.57
2018-04-14T01:29:12.124Z,12.62
2018-04-14T01:30:11.578Z,12.63
2018-04-14T01:31:11.571Z,12.6
2018-04-14T01:32:11.822Z,12.49
2018-04-14T01:33:11.802Z,12.52
2018-04-14T01:34:11.780Z,12.51
2018-04-14T01:35:11.769Z,12.51
2018-04-14T01:36:11.753Z,12.6
2018-04-14T01:37:11.747Z,12.52
2018-04-14T01:38:11.975Z,12.54
2018-04-14T01:39:11.971Z,12.52
2018-04-14T01:40:11.961Z,12.48
2018-04-14T01:41:11.413Z,12.52
2018-04-14T01:42:11.926Z,12.49
2018-04-14T01:43:11.922Z,12.48
2018-04-14T01:44:11.636Z,12.44
2018-04-14T01:45:11.622Z,12.51
2018-04-14T01:46:11.606Z,12.51
2018-04-14T01:47:11.593Z,12.49
2018-04-14T01:48:11.839Z,12.46
2018-04-14T01:49:11.830Z,12.44
2018-04-14T01:50:11.551Z,12.56
2018-04-14T01:51:11.269Z,12.51
2018-04-14T01:52:11.517Z,12.41
2018-04-14T01:53:11.826Z,12.48
2018-04-14T01:54:11.484Z,12.49
2018-04-14T01:55:11.520Z,12.49
2018-04-14T01:56:11.457Z,12.49
2018-04-14T01:57:11.442Z,12.45
2018-04-14T01:58:11.425Z,12.45
2018-04-14T01:59:11.423Z,12.48
2018-04-14T02:00:11.136Z,12.48
2018-04-14T02:01:11.385Z,12.48
2018-04-14T02:02:11.640Z,12.48
2018-04-14T02:03:11.712Z,12.48
2018-04-14T02:04:11.609Z,12.46
2018-04-14T02:05:11.599Z,12.45
2018-04-14T02:06:11.306Z,12.39
2018-04-14T02:07:11.028Z,12.42
2018-04-14T02:08:11.336Z,12.39
2018-04-14T02:09:11.260Z,12.37
2018-04-14T02:10:11.247Z,12.44
2018-04-14T02:11:11.516Z,12.44
2018-04-14T02:12:11.497Z,12.34
2018-04-14T02:13:10.942Z,12.38
2018-04-14T02:14:10.926Z,12.34
2018-04-14T02:15:11.440Z,12.37
2018-04-14T02:16:11.163Z,12.39
2018-04-14T02:17:11.149Z,12.37
2018-04-14T02:18:11.393Z,12.39
2018-04-14T02:19:10.846Z,12.39
2018-04-14T02:20:10.838Z,12.37
2018-04-14T02:21:11.085Z,12.34
2018-04-14T02:22:11.341Z,12.37
2018-04-14T02:23:11.329Z,12.42
2018-04-14T02:24:10.774Z,12.3
2018-04-14T02:25:11.027Z,12.38
2018-04-14T02:26:11.009Z,12.38
2018-04-14T02:27:10.996Z,12.29
2018-04-14T02:28:11.245Z,12.38
2018-04-14T02:29:11.167Z,12.33
2018-04-14T02:30:10.953Z,12.26
2018-04-14T02:31:11.203Z,12.31
2018-04-14T02:32:11.195Z,12.24
2018-04-14T02:33:10.641Z,12.24
2018-04-14T02:34:11.166Z,12.24
2018-04-14T02:35:11.143Z,12.27
2018-04-14T02:36:11.132Z,12.29
2018-04-14T02:37:10.584Z,12.24
2018-04-14T02:38:10.563Z,12.23
2018-04-14T02:39:10.568Z,12.24
2018-04-14T02:40:10.814Z,12.27
2018-04-14T02:41:10.795Z,12.21
2018-04-14T02:42:10.781Z,12.27
2018-04-14T02:43:10.758Z,12.21
2018-04-14T02:44:11.007Z,12.2
2018-04-14T02:45:10.736Z,12.23
2018-04-14T02:46:10.724Z,12.15
2018-04-14T02:47:10.693Z,12.21
2018-04-14T02:48:10.678Z,12.27
2018-04-14T02:49:10.983Z,12.23
2018-04-14T02:50:10.656Z,12.2
2018-04-14T02:51:10.374Z,12.21
2018-04-14T02:52:10.424Z,12.27
2018-04-14T02:53:10.893Z,12.19
2018-04-14T02:54:10.856Z,12.2
2018-04-14T02:55:10.845Z,12.24
2018-04-14T02:56:10.559Z,12.16
2018-04-14T02:57:10.551Z,12.13
2018-04-14T02:58:10.538Z,12.13
2018-04-14T02:59:10.525Z,12.21
2018-04-14T03:00:10.510Z,12.24
2018-04-14T03:01:10.487Z,12.19
2018-04-14T03:02:10.478Z,12.19
2018-04-14T03:03:10.192Z,12.12
2018-04-14T03:04:10.453Z,12.21
2018-04-14T03:05:10.695Z,12.08
2018-04-14T03:06:10.685Z,12.06
2018-04-14T03:07:10.404Z,12.12
2018-04-14T03:08:10.383Z,12.06
2018-04-14T03:09:10.440Z,12.09
2018-04-14T03:10:10.360Z,12.04
2018-04-14T03:11:10.341Z,12.09
2018-04-14T03:12:10.328Z,12.05
2018-04-14T03:13:10.315Z,12.06
2018-04-14T03:14:10.026Z,12.08
2018-04-14T03:15:10.277Z,12.06
2018-04-14T03:16:10.526Z,11.96
2018-04-14T03:17:10.517Z,12.01
2018-04-14T03:18:10.504Z,11.94
2018-04-14T03:19:10.223Z,11.99
2018-04-14T03:20:10.468Z,11.97
2018-04-14T03:21:10.456Z,12.01
2018-04-14T03:22:10.436Z,11.96
2018-04-14T03:23:10.163Z,12.04
2018-04-14T03:24:10.148Z,11.96
2018-04-14T03:25:10.131Z,11.97
2018-04-14T03:26:10.122Z,11.94
2018-04-14T03:27:10.089Z,11.93
2018-04-14T03:28:10.076Z,11.94
2018-04-14T03:29:09.799Z,11.96
2018-04-14T03:30:09.797Z,11.99
2018-04-14T03:31:09.770Z,12.02
2018-04-14T03:32:10.020Z,11.96
2018-04-14T03:33:10.270Z,11.97
2018-04-14T03:34:10.251Z,11.94
2018-04-14T03:35:10.249Z,11.99
2018-04-14T03:36:09.970Z,11.96
2018-04-14T03:37:09.674Z,11.99
2018-04-14T03:38:09.660Z,11.99
2018-04-14T03:39:10.175Z,11.94
2018-04-14T03:40:09.898Z,11.94
2018-04-14T03:41:09.883Z,11.97
2018-04-14T03:42:09.870Z,11.99
2018-04-14T03:43:10.116Z,11.94
2018-04-14T03:44:09.841Z,11.99
2018-04-14T03:45:09.824Z,11.97
2018-04-14T03:46:09.800Z,11.96
2018-04-14T03:47:09.789Z,11.99
2018-04-14T03:48:09.777Z,11.97
2018-04-14T03:49:09.772Z,11.99
2018-04-14T03:50:09.751Z,11.97
2018-04-14T03:51:09.993Z,11.96
2018-04-14T03:52:09.712Z,11.97
2018-04-14T03:53:09.702Z,11.87
2018-04-14T03:54:09.963Z,11.99
2018-04-14T03:55:09.929Z,11.89
2018-04-14T03:56:09.918Z,12.01
2018-04-14T03:57:09.640Z,11.89
2018-04-14T03:58:09.621Z,11.96
2018-04-14T03:59:09.869Z,11.99
2018-04-14T04:00:09.595Z,11.99
2018-04-14T04:01:09.838Z,11.97
2018-04-14T04:02:09.573Z,12.01
2018-04-14T04:03:09.810Z,11.96
2018-04-14T04:04:09.529Z,11.99
2018-04-14T04:05:09.782Z,12.02
2018-04-14T04:06:09.503Z,11.97
2018-04-14T04:07:09.490Z,11.97
2018-04-14T04:08:09.477Z,12.02
2018-04-14T04:09:09.725Z,11.94
2018-04-14T04:10:09.177Z,11.97
2018-04-14T04:11:09.686Z,11.94
2018-04-14T04:12:09.672Z,11.99
2018-04-14T04:13:09.130Z,11.96
2018-04-14T04:14:09.377Z,12.02
2018-04-14T04:15:09.364Z,11.94
2018-04-14T04:16:09.352Z,11.99
2018-04-14T04:17:09.335Z,11.97
2018-04-14T04:18:09.314Z,11.97
2018-04-14T04:19:09.303Z,12.01
2018-04-14T04:20:09.295Z,11.99
2018-04-14T04:21:09.276Z,11.96
2018-04-14T04:22:08.989Z,11.96
2018-04-14T04:23:08.983Z,11.99
2018-04-14T04:24:09.225Z,12.01
2018-04-14T04:25:08.947Z,11.97
2018-04-14T04:26:09.195Z,11.99
2018-04-14T04:27:09.448Z,11.96
2018-04-14T04:28:09.231Z,11.87
2018-04-14T04:29:09.621Z,11.94
2018-04-14T04:30:09.136Z,11.96
2018-04-14T04:31:09.121Z,11.99
2018-04-14T04:32:09.109Z,11.99
2018-04-14T04:33:09.104Z,11.97
2018-04-14T04:34:09.077Z,12.02
2018-04-14T04:35:09.065Z,11.94
2018-04-14T04:36:09.045Z,11.96
2018-04-14T04:37:09.025Z,12.02
2018-04-14T04:38:09.006Z,11.97
2018-04-14T04:39:08.991Z,12.01
2018-04-14T04:40:08.979Z,11.97
2018-04-14T04:41:09.281Z,11.96
2018-04-14T04:42:08.683Z,11.96
2018-04-14T04:43:08.935Z,11.97
2018-04-14T04:44:09.191Z,11.93
2018-04-14T04:45:08.644Z,11.89
2018-04-14T04:46:09.156Z,11.99
2018-04-14T04:47:08.878Z,12.01
2018-04-14T04:48:08.860Z,11.96
2018-04-14T04:49:09.109Z,11.97
2018-04-14T04:50:09.096Z,12.01
2018-04-14T04:51:09.076Z,12.01
2018-04-14T04:52:08.537Z,12.01
2018-04-14T04:53:09.050Z,11.99
2018-04-14T04:54:08.506Z,11.94
2018-04-14T04:55:08.757Z,11.93
2018-04-14T04:56:08.739Z,11.97
2018-04-14T04:57:08.985Z,12.01
2018-04-14T04:58:08.704Z,11.97
2018-04-14T04:59:08.700Z,11.97
2018-04-14T05:00:08.686Z,12.08
2018-04-14T05:01:08.400Z,12.02
2018-04-14T05:02:08.911Z,12.09
2018-04-14T05:03:08.903Z,11.94
2018-04-14T05:04:08.896Z,12.05
2018-04-14T05:05:08.869Z,11.97
2018-04-14T05:06:08.587Z,11.97
2018-04-14T05:07:09.033Z,11.96
2018-04-14T05:08:08.555Z,11.96
2018-04-14T05:09:08.533Z,11.96
2018-04-14T05:10:08.526Z,11.96
2018-04-14T05:11:08.561Z,12.02
2018-04-14T05:12:08.759Z,12.04
2018-04-14T05:13:08.213Z,12.08
2018-04-14T05:14:08.471Z,11.97
2018-04-14T05:15:08.184Z,12.09
2018-04-14T05:16:08.177Z,12.06
2018-04-14T05:17:08.418Z,12.13
2018-04-14T05:18:08.672Z,12.11
2018-04-14T05:19:08.663Z,12.04
2018-04-14T05:20:08.643Z,12.11
2018-04-14T05:21:08.623Z,12.05
2018-04-14T05:22:08.353Z,12.02
2018-04-14T05:23:08.597Z,12.06
2018-04-14T05:24:08.360Z,12.05
2018-04-14T05:25:08.598Z,12.09
2018-04-14T05:26:08.551Z,12.12
2018-04-14T05:27:07.999Z,12.15
2018-04-14T05:28:08.517Z,12.08
2018-04-14T05:29:08.233Z,12.11
2018-04-14T05:30:08.228Z,12.15
2018-04-14T05:31:08.210Z,12.06
2018-04-14T05:32:08.452Z,12.08
2018-04-14T05:33:08.182Z,12.12
2018-04-14T05:34:07.890Z,12.21
2018-04-14T05:35:08.410Z,12.24
2018-04-14T05:36:08.139Z,12.08
2018-04-14T05:37:08.126Z,12.05
2018-04-14T05:38:08.364Z,12.06
2018-04-14T05:39:08.098Z,12.19
2018-04-14T05:40:08.070Z,12.16
2018-04-14T05:41:08.052Z,12.12
2018-04-14T05:42:07.771Z,12.12
2018-04-14T05:43:08.289Z,12.23
2018-04-14T05:44:08.271Z,12.13
2018-04-14T05:45:08.258Z,12.23
2018-04-14T05:46:07.980Z,12.15
2018-04-14T05:47:08.226Z,12.21
2018-04-14T05:48:07.959Z,12.24
2018-04-14T05:49:08.213Z,12.2
2018-04-14T05:50:08.181Z,12.19
2018-04-14T05:51:08.178Z,12.21
2018-04-14T05:52:07.623Z,12.16
2018-04-14T05:53:07.868Z,12.19
2018-04-14T05:54:07.853Z,12.19
2018-04-14T05:55:07.580Z,12.15
2018-04-14T05:56:07.826Z,12.06
2018-04-14T05:57:07.809Z,12.23
2018-04-14T05:58:07.791Z,12.13
2018-04-14T05:59:07.777Z,12.09
2018-04-14T06:00:07.766Z,12.13
2018-04-14T06:01:07.751Z,12.19
2018-04-14T06:02:08.009Z,12.2
2018-04-14T06:03:07.655Z,12.2
2018-04-14T06:04:07.440Z,12.16
2018-04-14T06:05:07.422Z,12.19
2018-04-14T06:06:07.678Z,12.16
2018-04-14T06:07:07.920Z,12.19
2018-04-14T06:08:07.914Z,12.24
2018-04-14T06:09:07.668Z,12.19
2018-04-14T06:10:07.886Z,12.2
2018-04-14T06:11:07.860Z,12.27
2018-04-14T06:12:07.585Z,12.21
2018-04-14T06:13:07.563Z,12.21
2018-04-14T06:14:07.288Z,12.21
2018-04-14T06:15:07.808Z,12.29
2018-04-14T06:16:07.789Z,12.29
2018-04-14T06:17:07.509Z,12.26
2018-04-14T06:18:07.759Z,12.21
2018-04-14T06:19:07.737Z,12.27
2018-04-14T06:20:07.732Z,12.26
2018-04-14T06:21:07.454Z,12.26
2018-04-14T06:22:07.249Z,12.26
2018-04-14T06:23:07.693Z,12.24
2018-04-14T06:24:07.404Z,12.23
2018-04-14T06:25:07.120Z,12.34
2018-04-14T06:26:07.376Z,12.38
2018-04-14T06:27:07.409Z,12.33
2018-04-14T06:28:07.343Z,12.34
2018-04-14T06:29:07.791Z,12.41
2018-04-14T06:30:07.577Z,12.38
2018-04-14T06:31:07.032Z,12.48
2018-04-14T06:32:07.295Z,12.49
2018-04-14T06:33:07.529Z,12.48
2018-04-14T06:34:06.987Z,12.54
2018-04-14T06:35:07.257Z,12.48
2018-04-14T06:36:07.289Z,12.45
2018-04-14T06:37:07.217Z,12.59
2018-04-14T06:38:07.472Z,12.62
2018-04-14T06:39:06.910Z,12.48
2018-04-14T06:40:07.173Z,12.46
2018-04-14T06:41:07.146Z,12.49
2018-04-14T06:42:07.132Z,12.48
2018-04-14T06:43:07.124Z,12.46
2018-04-14T06:44:07.169Z,12.42
2018-04-14T06:45:06.838Z,12.54
2018-04-14T06:46:06.822Z,12.54
2018-04-14T06:47:07.064Z,12.44
2018-04-14T06:48:07.046Z,12.49
2018-04-14T06:49:06.770Z,12.51
2018-04-14T06:50:07.027Z,12.51
2018-04-14T06:51:07.007Z,12.49
2018-04-14T06:52:06.999Z,12.38
2018-04-14T06:53:07.255Z,12.45
2018-04-14T06:54:06.963Z,12.57
2018-04-14T06:55:06.947Z,12.51
2018-04-14T06:56:07.200Z,12.49
2018-04-14T06:57:07.188Z,12.48
2018-04-14T06:58:07.171Z,12.54
2018-04-14T06:59:06.888Z,12.49
2018-04-14T07:00:06.875Z,12.48
2018-04-14T07:01:06.859Z,12.44
2018-04-14T07:02:07.107Z,12.51
2018-04-14T07:03:06.832Z,12.52
2018-04-14T07:04:06.549Z,12.41
2018-04-14T07:05:07.087Z,12.52
2018-04-14T07:06:06.795Z,12.6
2018-04-14T07:07:07.037Z,12.51
2018-04-14T07:08:06.493Z,12.56
2018-04-14T07:09:07.012Z,12.52
2018-04-14T07:10:06.995Z,12.46
2018-04-14T07:11:06.452Z,12.54
2018-04-14T07:12:06.713Z,12.56
2018-04-14T07:13:06.954Z,12.52
2018-04-14T07:14:06.676Z,12.66
2018-04-14T07:15:06.392Z,12.63
2018-04-14T07:16:06.375Z,12.71
2018-04-14T07:17:06.361Z,12.77
2018-04-14T07:18:06.885Z,12.81
2018-04-14T07:19:06.600Z,12.82
2018-04-14T07:20:06.585Z,12.92
2018-04-14T07:21:06.840Z,12.87
2018-04-14T07:22:06.559Z,13
2018-04-14T07:23:06.551Z,13
2018-04-14T07:24:06.530Z,13.2
2018-04-14T07:25:06.779Z,13.17
2018-04-14T07:26:06.233Z,13.27
2018-04-14T07:27:06.754Z,13.32
2018-04-14T07:28:06.206Z,13.44
2018-04-14T07:29:06.464Z,13.41
2018-04-14T07:30:06.188Z,13.41
2018-04-14T07:31:06.704Z,13.32
2018-04-14T07:32:06.424Z,13.3
2018-04-14T07:33:06.423Z,13.41
2018-04-14T07:34:06.124Z,13.4
2018-04-14T07:35:06.378Z,13.44
2018-04-14T07:36:06.366Z,13.4
2018-04-14T07:37:06.352Z,13.51
2018-04-14T07:38:06.400Z,13.59
2018-04-14T07:39:06.639Z,13.67
2018-04-14T07:40:06.053Z,13.67
2018-04-14T07:41:06.304Z,13.61
2018-04-14T07:42:06.019Z,13.63
2018-04-14T07:43:06.008Z,13.74
2018-04-14T07:44:06.276Z,13.7
2018-04-14T07:45:06.626Z,13.63
2018-04-14T07:46:05.970Z,13.59
2018-04-14T07:47:06.224Z,13.56
2018-04-14T07:48:06.472Z,13.54
2018-04-14T07:49:05.928Z,13.54
2018-04-14T07:50:06.174Z,13.52
2018-04-14T07:51:06.168Z,13.46
2018-04-14T07:52:06.414Z,13.37
2018-04-14T07:53:05.877Z,13.41
2018-04-14T07:54:06.394Z,13.3
2018-04-14T07:55:06.123Z,13.37
2018-04-14T07:56:06.105Z,13.41
2018-04-14T07:57:06.091Z,13.4
2018-04-14T07:58:05.815Z,13.22
2018-04-14T07:59:06.347Z,13.36
2018-04-14T08:00:06.330Z,13.41
2018-04-14T08:01:06.036Z,13.3
2018-04-14T08:02:06.022Z,13.37
2018-04-14T08:03:05.748Z,13.24
2018-04-14T08:04:05.743Z,13.3
2018-04-14T08:05:06.251Z,13.33
2018-04-14T08:06:05.979Z,13.46
2018-04-14T08:07:05.972Z,13.37
2018-04-14T08:08:05.948Z,13.52
2018-04-14T08:09:06.199Z,13.54
2018-04-14T08:10:05.921Z,13.74
2018-04-14T08:11:06.183Z,13.89
2018-04-14T08:12:05.892Z,13.79
2018-04-14T08:13:06.156Z,13.91
2018-04-14T08:14:06.135Z,13.92
2018-04-14T08:15:06.116Z,13.96
2018-04-14T08:16:05.573Z,13.88
2018-04-14T08:17:06.098Z,13.81
2018-04-14T08:18:05.813Z,13.83
2018-04-14T08:19:05.807Z,13.83
2018-04-14T08:20:05.790Z,13.87
2018-04-14T08:21:05.798Z,13.87
2018-04-14T08:22:06.035Z,13.95
2018-04-14T08:23:05.493Z,13.95
2018-04-14T08:24:05.742Z,14.02
2018-04-14T08:25:05.737Z,14.06
2018-04-14T08:26:05.984Z,14.06
2018-04-14T08:27:05.711Z,14.14
2018-04-14T08:28:05.956Z,14.17
2018-04-14T08:29:05.629Z,14.32
2018-04-14T08:30:05.469Z,14.16
2018-04-14T08:31:05.662Z,14.29
2018-04-14T08:32:05.381Z,14.24
2018-04-14T08:33:05.368Z,14.32
2018-04-14T08:34:05.626Z,14.39
2018-04-14T08:35:05.344Z,14.32
2018-04-14T08:36:05.863Z,14.31
2018-04-14T08:37:05.850Z,14.37
2018-04-14T08:38:05.303Z,14.46
2018-04-14T08:39:05.564Z,14.56
2018-04-14T08:40:05.816Z,14.75
2018-04-14T08:41:05.537Z,14.93
2018-04-14T08:42:05.527Z,15.11
2018-04-14T08:43:05.777Z,15.3
2018-04-14T08:44:05.504Z,15.26
2018-04-14T08:45:05.527Z,15.06
2018-04-14T08:46:05.744Z,15.13
2018-04-14T08:47:05.737Z,15.2
2018-04-14T08:48:05.458Z,15.11
2018-04-14T08:49:05.445Z,14.98
2018-04-14T08:50:05.431Z,15.05
2018-04-14T08:51:05.156Z,15.27
2018-04-14T08:52:05.415Z,15.45
2018-04-14T08:53:05.668Z,15.67
2018-04-14T08:54:05.424Z,15.85
2018-04-14T08:55:05.379Z,16.25
2018-04-14T08:56:05.367Z,16.33
2018-04-14T08:57:05.091Z,16.45
2018-04-14T08:58:05.352Z,16.53
2018-04-14T08:59:05.607Z,16.58
2018-04-14T09:00:05.061Z,16.55
2018-04-14T09:01:05.583Z,16.45
2018-04-14T09:02:05.045Z,16.38
2018-04-14T09:03:05.032Z,16.07
2018-04-14T09:04:05.558Z,16.11
2018-04-14T09:05:05.551Z,15.97
2018-04-14T09:06:05.598Z,15.93
2018-04-14T09:07:05.256Z,16.04
2018-04-14T09:08:05.513Z,15.94
2018-04-14T09:09:05.633Z,15.89
2018-04-14T09:10:05.230Z,15.99
2018-04-14T09:11:05.489Z,16.04
2018-04-14T09:12:04.945Z,16.31
2018-04-14T09:13:05.464Z,16.65
2018-04-14T09:14:05.195Z,16.8
2018-04-14T09:15:05.445Z,16.83
2018-04-14T09:16:04.912Z,16.73
2018-04-14T09:17:05.163Z,16.71
2018-04-14T09:18:04.889Z,16.49
2018-04-14T09:19:05.140Z,16.48
2018-04-14T09:20:04.870Z,16.56
2018-04-14T09:21:05.393Z,16.88
2018-04-14T09:22:05.128Z,17.1
2018-04-14T09:23:05.376Z,17.08
2018-04-14T09:24:05.369Z,16.9
2018-04-14T09:25:05.093Z,17.14
2018-04-14T09:26:05.090Z,17.06
2018-04-14T09:27:05.071Z,17.07
2018-04-14T09:28:05.070Z,16.93
2018-04-14T09:29:05.330Z,16.86
2018-04-14T09:30:05.046Z,16.55
2018-04-14T09:31:05.308Z,16.4
2018-04-14T09:32:04.770Z,16.33
2018-04-14T09:33:05.298Z,16.44
2018-04-14T09:34:05.281Z,16.93
2018-04-14T09:35:05.005Z,17.08
2018-04-14T09:36:05.001Z,17.66
2018-04-14T09:37:05.475Z,17.48
2018-04-14T09:38:04.985Z,17.28
2018-04-14T09:39:04.980Z,17.14
2018-04-14T09:40:04.973Z,16.93
2018-04-14T09:41:04.963Z,17.04
2018-04-14T09:42:05.236Z,16.99
2018-04-14T09:43:04.950Z,16.98
2018-04-14T09:44:05.211Z,16.99
2018-04-14T09:45:05.204Z,17
2018-04-14T09:46:04.927Z,16.95
2018-04-14T09:47:05.188Z,16.71
2018-04-14T09:48:04.644Z,16.62
2018-04-14T09:49:04.652Z,16.55
2018-04-14T09:50:04.902Z,16.42
2018-04-14T09:51:04.889Z,16.6
2018-04-14T09:52:05.197Z,16.52
2018-04-14T09:53:05.139Z,16.85
2018-04-14T09:54:04.862Z,16.86
2018-04-14T09:55:04.591Z,16.95
2018-04-14T09:56:04.588Z,17.1
2018-04-14T09:57:04.843Z,16.81
2018-04-14T09:58:05.098Z,16.88
2018-04-14T09:59:04.825Z,17.1
2018-04-14T10:00:04.549Z,17.53
2018-04-14T10:01:04.809Z,17.67
2018-04-14T10:02:04.807Z,17.67
2018-04-14T10:03:05.212Z,17.38
2018-04-14T10:04:04.790Z,17.13
2018-04-14T10:05:04.778Z,16.7
2018-04-14T10:06:04.769Z,16.74
2018-04-14T10:07:04.763Z,16.89
2018-04-14T10:08:04.488Z,16.55
2018-04-14T10:09:04.750Z,16.58
2018-04-14T10:10:04.477Z,16.65
2018-04-14T10:11:04.466Z,16.62
2018-04-14T10:12:04.998Z,16.83
2018-04-14T10:13:04.979Z,16.93
2018-04-14T10:14:04.712Z,17.54
2018-04-14T10:15:04.702Z,17.66
2018-04-14T10:16:04.690Z,17.81
2018-04-14T10:17:04.945Z,17.88
2018-04-14T10:18:04.405Z,17.97
2018-04-14T10:19:04.940Z,17.95
2018-04-14T10:20:04.927Z,17.76
2018-04-14T10:21:04.393Z,17.54
2018-04-14T10:22:04.649Z,17.51
2018-04-14T10:23:04.369Z,17.62
2018-04-14T10:24:04.909Z,17.46
2018-04-14T10:25:04.888Z,17.35
2018-04-14T10:26:04.613Z,17.33
2018-04-14T10:27:04.667Z,17.35
2018-04-14T10:28:04.334Z,17.33
2018-04-14T10:29:04.795Z,17.18
2018-04-14T10:30:04.587Z,17.07
2018-04-14T10:31:04.884Z,17.11
2018-04-14T10:32:04.571Z,17.08
2018-04-14T10:33:04.835Z,17.22
2018-04-14T10:34:04.559Z,17.25
2018-04-14T10:35:04.817Z,17.14
2018-04-14T10:36:04.271Z,17.13
2018-04-14T10:37:04.264Z,17.03
2018-04-14T10:38:04.594Z,17.03
2018-04-14T10:39:04.522Z,17.14
2018-04-14T10:40:04.513Z,17.18
2018-04-14T10:41:04.238Z,17.2
2018-04-14T10:42:04.760Z,17.18
2018-04-14T10:43:04.488Z,17.11
2018-04-14T10:44:04.218Z,17.13
2018-04-14T10:45:04.466Z,17.23
2018-04-14T10:46:04.201Z,17.08
2018-04-14T10:47:04.725Z,16.99
2018-04-14T10:48:04.448Z,16.83
2018-04-14T10:49:04.445Z,16.93
2018-04-14T10:50:04.758Z,17.06
2018-04-14T10:51:04.161Z,17.47
2018-04-14T10:52:04.422Z,17.85
2018-04-14T10:53:04.404Z,18.07
2018-04-14T10:54:04.421Z,18.03
2018-04-14T10:55:04.392Z,17.95
2018-04-14T10:56:04.403Z,17.99
2018-04-14T10:57:04.389Z,17.91
2018-04-14T10:58:04.644Z,18.18
2018-04-14T10:59:04.632Z,18.4
2018-04-14T11:00:04.625Z,18.59
2018-04-14T11:01:04.618Z,18.73
2018-04-14T11:02:04.353Z,18.7
2018-04-14T11:03:04.342Z,19.06
2018-04-14T11:04:04.329Z,19.5
2018-04-14T11:05:04.069Z,19.98
2018-04-14T11:06:04.589Z,20.23
2018-04-14T11:07:04.315Z,20.35
2018-04-14T11:08:04.047Z,20.21
2018-04-14T11:09:04.312Z,20.54
2018-04-14T11:10:04.573Z,20.59
2018-04-14T11:11:04.296Z,20.49
2018-04-14T11:12:04.292Z,20.79
2018-04-14T11:13:04.295Z,20.84
2018-04-14T11:14:04.286Z,20.84
2018-04-14T11:15:04.291Z,21.09
2018-04-14T11:16:04.551Z,21.39
2018-04-14T11:17:04.555Z,21.35
2018-04-14T11:18:04.288Z,21.41
2018-04-14T11:19:04.289Z,21.06
2018-04-14T11:20:04.014Z,20.95
2018-04-14T11:21:04.544Z,20.72
2018-04-14T11:22:04.529Z,20.35
2018-04-14T11:23:04.274Z,20.51
2018-04-14T11:24:04.264Z,20.79
2018-04-14T11:25:04.269Z,20.77
2018-04-14T11:26:04.559Z,20.83
2018-04-14T11:27:04.531Z,20.77
2018-04-14T11:28:04.274Z,20.87
2018-04-14T11:29:04.262Z,21.02
2018-04-14T11:30:04.261Z,21.21
2018-04-14T11:31:04.534Z,21.32
2018-04-14T11:32:04.528Z,21.42
2018-04-14T11:33:04.526Z,21.66
2018-04-14T11:34:04.521Z,21.95
2018-04-14T11:35:04.252Z,21.34
2018-04-14T11:36:03.990Z,21.11
2018-04-14T11:37:04.257Z,21.05
2018-04-14T11:38:04.252Z,21.36
2018-04-14T11:39:04.525Z,21.66
2018-04-14T11:40:04.248Z,21.98
2018-04-14T11:41:04.251Z,22.34
2018-04-14T11:42:04.251Z,21.71
2018-04-14T11:43:04.517Z,21.54
2018-04-14T11:44:04.514Z,21.39
2018-04-14T11:45:04.513Z,21.05
2018-04-14T11:46:04.523Z,20.59
2018-04-14T11:47:04.257Z,20.89
2018-04-14T11:48:03.983Z,21.08
2018-04-14T11:49:04.524Z,21.39
2018-04-14T11:50:04.514Z,21.36
2018-04-14T11:51:04.599Z,21.76
2018-04-14T11:52:04.248Z,21.5
2018-04-14T11:53:04.516Z,21.35
2018-04-14T11:54:04.247Z,21.45
2018-04-14T11:55:04.510Z,20.95
2018-04-14T11:56:04.514Z,20.03
2018-04-14T11:57:04.516Z,20.05
2018-04-14T11:58:03.996Z,20.25
2018-04-14T11:59:04.262Z,20.31
2018-04-14T12:00:04.253Z,20.47
2018-04-14T12:01:04.525Z,20.27
2018-04-14T12:02:03.985Z,20.3
2018-04-14T12:03:04.256Z,20.89
2018-04-14T12:04:04.520Z,21.08
2018-04-14T12:05:04.248Z,21.04
2018-04-14T12:06:04.252Z,20.93
2018-04-14T12:07:04.244Z,20.58
2018-04-14T12:08:04.255Z,20.41
2018-04-14T12:09:04.254Z,19.86
2018-04-14T12:10:04.515Z,19.61
2018-04-14T12:11:04.249Z,19.66
2018-04-14T12:12:03.983Z,19.84
2018-04-14T12:13:04.267Z,20.43
2018-04-14T12:14:03.981Z,20.24
2018-04-14T12:15:04.250Z,20.23
2018-04-14T12:16:04.251Z,20.24
2018-04-14T12:17:03.976Z,20.79
2018-04-14T12:18:04.500Z,20.98
2018-04-14T12:19:04.236Z,21.39
2018-04-14T12:20:04.500Z,21.88
2018-04-14T12:21:03.974Z,22.43
2018-04-14T12:22:04.502Z,22.86
2018-04-14T12:23:03.966Z,23.27
2018-04-14T12:24:04.233Z,23.17
2018-04-14T12:25:04.503Z,22.82
2018-04-14T12:26:04.240Z,22.8
2018-04-14T12:27:04.490Z,22.16
2018-04-14T12:28:04.227Z,22.25
2018-04-14T12:29:05.102Z,22.47
2018-04-14T12:30:04.234Z,22.69
2018-04-14T12:31:04.235Z,21.74
2018-04-14T12:32:04.241Z,21.71
2018-04-14T12:33:03.966Z,21.08
2018-04-14T12:34:04.237Z,21.23
2018-04-14T12:35:04.514Z,21.01
2018-04-14T12:36:04.244Z,20.39
2018-04-14T12:37:04.245Z,20.89
2018-04-14T12:38:04.239Z,20.99
2018-04-14T12:39:04.512Z,21.21
2018-04-14T12:40:04.242Z,21.59
2018-04-14T12:41:04.525Z,21.75
2018-04-14T12:42:04.244Z,21.71
2018-04-14T12:43:03.976Z,22.22
2018-04-14T12:44:04.049Z,22.22
2018-04-14T12:45:03.981Z,22.04
2018-04-14T12:46:04.253Z,22.23
2018-04-14T12:47:03.990Z,21.6
2018-04-14T12:48:04.253Z,20.98
2018-04-14T12:49:04.519Z,21.27
2018-04-14T12:50:04.255Z,21.71
2018-04-14T12:51:04.259Z,22.12
2018-04-14T12:52:04.534Z,22.14
2018-04-14T12:53:04.530Z,22.1
2018-04-14T12:54:03.993Z,22.23